This is the latest recevied weather packets stored in our database for station/object GW7110. If no packets are shown the sender has not sent any weather packets the latest 10 day(s).
| Time | Temp. | Humidity | Pressure | Rain* | Wind** | Luminosity | Snow |
|---|---|---|---|---|---|---|---|
| 1777653539 | 17.22° C | 58% | 30 hPa | 0 mm | - | 306 W/m² | - |
| 1777652339 | 16.11° C | 62% | 30 hPa | 0 mm | - | 240 W/m² | - |
| 1777652039 | 16.67° C | 61% | 30 hPa | 0 mm | - | 276 W/m² | - |
| 1777651739 | 16.67° C | 61% | 30 hPa | 0 mm | - | 273 W/m² | - |
| 1777649939 | 15.56° C | 62% | 30 hPa | 0 mm | - | 240 W/m² | - |
| 1777649640 | 16.11° C | 61% | 30 hPa | 0 mm | - | 215 W/m² | - |
| 1777619641 | 11.11° C | 83% | 30 hPa | 0 mm | - | - | - |
| 1777586339 | 22.22° C | 46% | 29.9 hPa | 0 mm | - | 381 W/m² | - |
| 1777586040 | 21.67° C | 43% | 29.9 hPa | 0 mm | - | 328 W/m² | - |
| 1777584841 | 20.56° C | 46% | 29.9 hPa | 0 mm | - | 369 W/m² | - |
| 1777583638 | 20° C | 47% | 29.9 hPa | 0 mm | - | 252 W/m² | - |
| 1777583039 | 20° C | 47% | 29.9 hPa | 0 mm | - | 339 W/m² | - |
| 1777580039 | 21.11° C | 43% | 30 hPa | 0 mm | - | 480 W/m² | - |
| 1777579438 | 20.56° C | 46% | 30 hPa | 0 mm | - | 429 W/m² | - |
| 1777579139 | 21.11° C | 51% | 30 hPa | 0 mm | - | 392 W/m² | - |
| 1777577339 | 20° C | 48% | 30 hPa | 0 mm | - | 360 W/m² | - |
| 1777577039 | 20° C | 48% | 30 hPa | 0 mm | - | 337 W/m² | - |
| 1777576741 | 20.56° C | 48% | 30 hPa | 0 mm | - | 330 W/m² | - |
| 1777574939 | 20.56° C | 46% | 30 hPa | 0 mm | - | 459 W/m² | - |
| 1777574340 | 20.56° C | 50% | 30 hPa | 0 mm | - | 636 W/m² | - |
| 1777573738 | 20.56° C | 50% | 30 hPa | 0 mm | - | 627 W/m² | - |
| 1777572239 | 20.56° C | 54% | 30 hPa | 0 mm | - | 465 W/m² | - |
| 1777570440 | 20.56° C | 54% | 30 hPa | 0 mm | - | 442 W/m² | - |
| 1777569840 | 20.56° C | 53% | 30 hPa | 0 mm | - | 554 W/m² | - |
| 1777569541 | 20° C | 54% | 30 hPa | 0 mm | - | 533 W/m² | - |
* Rain latest hour (hover to see other rain measurements)
** Current wind speed in m/s (hover to see current wind gust speed)